createdAt,value
2023-11-11T00:01:19.007Z,1.60
2023-11-11T00:03:52.513Z,1.33
2023-11-11T00:06:23.004Z,0.70
2023-11-11T00:08:53.275Z,1.10
2023-11-11T00:11:25.185Z,1.90
2023-11-11T00:13:58.863Z,2.03
2023-11-11T00:16:31.820Z,2.53
2023-11-11T00:19:04.828Z,1.90
2023-11-11T00:21:39.315Z,0.70
2023-11-11T00:24:11.231Z,1.00
2023-11-11T00:26:41.835Z,1.20
2023-11-11T00:29:12.122Z,2.20
2023-11-11T00:31:42.718Z,1.30
2023-11-11T00:34:16.609Z,1.03
2023-11-11T00:36:47.274Z,1.20
2023-11-11T00:39:17.735Z,0.83
2023-11-11T00:41:48.123Z,0.73
2023-11-11T00:44:20.714Z,1.27
2023-11-11T00:46:51.094Z,1.67
2023-11-11T00:49:24.018Z,1.97
2023-11-11T00:51:56.453Z,0.70
2023-11-11T00:54:28.026Z,0.70
2023-11-11T00:56:58.325Z,1.07
2023-11-11T00:59:28.629Z,1.73
2023-11-11T01:02:00.827Z,0.80
2023-11-11T01:04:34.668Z,1.37
2023-11-11T01:07:04.929Z,0.97
2023-11-11T01:09:35.283Z,0.50
2023-11-11T01:12:05.680Z,0.80
2023-11-11T01:14:36.251Z,0.80
2023-11-11T01:17:07.041Z,0.60
2023-11-11T01:19:40.038Z,1.00
2023-11-11T01:22:10.526Z,0.60
2023-11-11T01:24:44.502Z,0.80
2023-11-11T01:27:15.351Z,0.70
2023-11-11T01:29:45.991Z,0.70
2023-11-11T01:32:18.772Z,0.60
2023-11-11T01:34:51.913Z,1.43
2023-11-11T01:37:22.184Z,0.50
2023-11-11T01:39:52.551Z,1.13
2023-11-11T01:42:22.859Z,0.80
2023-11-11T01:44:53.201Z,0.70
2023-11-11T01:47:23.793Z,2.50
2023-11-11T01:49:56.760Z,1.90
2023-11-11T01:52:28.265Z,1.47
2023-11-11T01:54:58.632Z,0.80
2023-11-11T01:57:29.630Z,1.07
2023-11-11T02:00:01.102Z,0.70
2023-11-11T02:02:31.584Z,3.20
2023-11-11T02:05:05.075Z,1.03
2023-11-11T02:07:35.368Z,0.80
2023-11-11T02:10:05.995Z,3.87
2023-11-11T02:12:36.422Z,0.97
2023-11-11T02:15:07.398Z,1.03
2023-11-11T02:17:37.737Z,0.97
2023-11-11T02:20:13.294Z,3.33
2023-11-11T02:22:43.758Z,0.83
2023-11-11T02:25:16.628Z,1.30
2023-11-11T02:27:48.455Z,1.23
2023-11-11T02:30:20.089Z,1.63
2023-11-11T02:32:50.477Z,0.90
2023-11-11T02:35:20.906Z,0.70
2023-11-11T02:37:51.876Z,4.97
2023-11-11T02:40:24.691Z,2.20
2023-11-11T02:42:55.117Z,0.70
2023-11-11T02:45:27.068Z,0.80
2023-11-11T02:47:57.469Z,1.00
2023-11-11T02:50:29.411Z,1.07
2023-11-11T02:53:00.466Z,5.53
2023-11-11T02:55:36.298Z,0.90
2023-11-11T02:58:06.734Z,3.20
2023-11-11T03:00:41.357Z,1.33
2023-11-11T03:03:12.027Z,1.80
2023-11-11T03:05:42.708Z,1.00
2023-11-11T03:08:13.012Z,1.47
2023-11-11T03:10:46.073Z,1.63
2023-11-11T03:13:16.451Z,1.70
2023-11-11T03:15:47.242Z,1.57
2023-11-11T03:18:15.553Z,1.30
2023-11-11T03:20:45.913Z,2.10
2023-11-11T03:23:16.225Z,1.60
2023-11-11T03:25:49.205Z,1.67
2023-11-11T03:28:19.788Z,1.50
2023-11-11T03:30:51.349Z,2.17
2023-11-11T03:33:21.721Z,1.43
2023-11-11T03:35:52.889Z,3.13
2023-11-11T03:38:23.947Z,1.53
2023-11-11T03:40:58.456Z,1.87
2023-11-11T03:43:28.769Z,0.90
2023-11-11T03:46:00.556Z,2.30
2023-11-11T03:48:31.083Z,1.43
2023-11-11T03:51:03.057Z,2.60
2023-11-11T03:53:33.430Z,1.90
2023-11-11T03:56:11.845Z,1.80
2023-11-11T03:58:42.280Z,1.90
2023-11-11T04:01:13.293Z,1.10
2023-11-11T04:03:45.315Z,1.37
2023-11-11T04:06:16.019Z,1.00
2023-11-11T04:08:46.377Z,1.33
2023-11-11T04:11:19.346Z,1.23
2023-11-11T04:13:49.804Z,0.70
2023-11-11T04:16:20.513Z,1.50
2023-11-11T04:18:50.881Z,3.07
2023-11-11T04:21:21.654Z,2.27
2023-11-11T04:23:52.195Z,0.60
2023-11-11T04:26:25.125Z,0.73
2023-11-11T04:28:55.589Z,1.80
2023-11-11T04:31:28.721Z,2.00
2023-11-11T04:33:59.161Z,1.00
2023-11-11T04:36:29.451Z,1.17
2023-11-11T04:38:59.848Z,1.17
2023-11-11T04:41:32.984Z,0.70
2023-11-11T04:44:03.279Z,2.67
2023-11-11T04:46:33.697Z,0.93
2023-11-11T04:49:04.027Z,1.20
2023-11-11T04:51:34.501Z,0.57
2023-11-11T04:54:05.390Z,1.50
2023-11-11T04:56:39.059Z,3.20
2023-11-11T04:59:14.841Z,2.30
2023-11-11T05:01:45.342Z,0.70
2023-11-11T05:04:15.864Z,1.40
2023-11-11T05:06:46.206Z,1.23
2023-11-11T05:09:16.772Z,0.60
2023-11-11T05:11:50.109Z,0.50
2023-11-11T05:14:20.908Z,0.50
2023-11-11T05:16:56.071Z,1.43
2023-11-11T05:19:27.319Z,3.60
2023-11-11T05:21:57.599Z,1.27
2023-11-11T05:24:29.199Z,1.77
2023-11-11T05:27:02.842Z,1.03
2023-11-11T05:29:33.140Z,1.07
2023-11-11T05:32:04.635Z,0.60
2023-11-11T05:34:35.028Z,1.53
2023-11-11T05:37:11.238Z,0.70
2023-11-11T05:39:44.804Z,1.20
2023-11-11T05:42:17.721Z,0.70
2023-11-11T05:44:48.060Z,2.70
2023-11-11T05:47:18.766Z,0.97
2023-11-11T05:49:50.445Z,2.23
2023-11-11T05:52:21.071Z,0.80
2023-11-11T05:54:52.046Z,4.70
2023-11-11T05:57:25.115Z,0.97
2023-11-11T05:59:55.471Z,1.37
2023-11-11T06:02:26.629Z,0.73
2023-11-11T06:04:57.746Z,3.80
2023-11-11T06:07:28.130Z,1.23
2023-11-11T06:09:58.868Z,1.37
2023-11-11T06:12:31.950Z,2.40
2023-11-11T06:15:02.350Z,1.10
2023-11-11T06:17:32.880Z,2.10
2023-11-11T06:20:05.089Z,1.83
2023-11-11T06:22:36.175Z,1.80
2023-11-11T06:25:10.019Z,4.03
2023-11-11T06:27:42.994Z,2.60
2023-11-11T06:30:13.932Z,2.67
2023-11-11T06:32:44.273Z,1.00
2023-11-11T06:35:15.077Z,1.43
2023-11-11T06:37:47.965Z,1.43
2023-11-11T06:40:18.346Z,8.27
2023-11-11T06:42:52.132Z,4.30
2023-11-11T06:45:22.602Z,2.60
2023-11-11T06:47:53.127Z,1.77
2023-11-11T06:50:25.019Z,2.40
2023-11-11T06:52:55.943Z,3.20
2023-11-11T06:55:29.023Z,2.87
2023-11-11T06:58:05.126Z,2.63
2023-11-11T07:00:37.178Z,3.20
2023-11-11T07:03:08.160Z,2.17
2023-11-11T07:05:38.716Z,2.13
2023-11-11T07:08:10.436Z,3.33
2023-11-11T07:10:43.680Z,2.70
2023-11-11T07:13:19.422Z,2.40
2023-11-11T07:15:51.522Z,3.60
2023-11-11T07:18:22.088Z,2.73
2023-11-11T07:20:52.535Z,4.87
2023-11-11T07:23:23.165Z,5.80
2023-11-11T07:25:54.041Z,3.20
2023-11-11T07:28:28.067Z,6.93
2023-11-11T07:30:58.616Z,3.10
2023-11-11T07:33:29.072Z,3.80
2023-11-11T07:35:59.355Z,6.60
2023-11-11T07:38:32.000Z,2.60
2023-11-11T07:41:02.857Z,2.70
2023-11-11T07:43:36.298Z,2.70
2023-11-11T07:46:08.304Z,2.40
2023-11-11T07:48:39.500Z,3.30
2023-11-11T07:51:12.274Z,6.33
2023-11-11T07:53:42.738Z,3.40
2023-11-11T07:56:12.987Z,3.17
2023-11-11T07:58:48.689Z,3.30
2023-11-11T08:01:19.141Z,3.30
2023-11-11T08:03:49.528Z,8.67
2023-11-11T08:06:20.615Z,4.00
2023-11-11T08:08:50.883Z,4.77
2023-11-11T08:11:21.174Z,4.70
2023-11-11T08:13:54.253Z,3.83
2023-11-11T08:16:24.607Z,4.20
2023-11-11T08:18:55.073Z,4.03
2023-11-11T08:21:30.798Z,4.47
2023-11-11T08:24:02.014Z,4.03
2023-11-11T08:26:32.332Z,4.80
2023-11-11T08:29:05.907Z,4.30
2023-11-11T08:31:36.262Z,6.30
2023-11-11T08:34:07.482Z,2.97
2023-11-11T08:36:45.772Z,3.93
2023-11-11T08:39:22.323Z,4.20
2023-11-11T08:41:53.588Z,6.37
2023-11-11T08:44:26.611Z,2.63
2023-11-11T08:46:57.163Z,6.20
2023-11-11T08:49:28.231Z,5.43
2023-11-11T08:51:58.545Z,3.80
2023-11-11T08:54:29.134Z,4.23
2023-11-11T08:57:00.113Z,4.03
2023-11-11T08:59:35.216Z,3.00
2023-11-11T09:02:05.535Z,3.60
2023-11-11T09:04:36.447Z,4.67
2023-11-11T09:07:07.602Z,2.70
2023-11-11T09:09:37.968Z,4.70
2023-11-11T09:12:09.138Z,4.33
2023-11-11T09:14:42.117Z,4.43
2023-11-11T09:17:15.013Z,3.33
2023-11-11T09:19:45.368Z,4.03
2023-11-11T09:22:16.187Z,3.50
2023-11-11T09:24:51.162Z,2.13
2023-11-11T09:27:22.085Z,3.80
2023-11-11T09:29:55.521Z,2.77
2023-11-11T09:32:27.337Z,2.20
2023-11-11T09:34:58.043Z,2.27
2023-11-11T09:37:28.348Z,2.77
2023-11-11T09:40:00.960Z,1.67
2023-11-11T09:42:33.642Z,2.57
2023-11-11T09:47:47.899Z,2.17
2023-11-11T09:50:27.124Z,6.80
2023-11-11T09:52:59.131Z,2.90
2023-11-11T09:55:36.831Z,2.50
2023-11-11T09:58:07.661Z,3.87
2023-11-11T10:00:44.360Z,2.43
2023-11-11T10:03:14.811Z,1.80
2023-11-11T10:05:46.210Z,2.00
2023-11-11T10:08:18.018Z,4.13
2023-11-11T10:10:49.923Z,3.17
2023-11-11T10:13:25.125Z,2.83
2023-11-11T10:16:12.105Z,1.80
2023-11-11T10:18:42.505Z,1.70
2023-11-11T10:21:19.643Z,2.70
2023-11-11T10:23:57.287Z,1.53
2023-11-11T10:26:30.166Z,1.60
2023-11-11T10:29:05.118Z,3.20
2023-11-11T10:31:41.444Z,2.33
2023-11-11T10:34:11.839Z,2.27
2023-11-11T10:36:44.789Z,1.87
2023-11-11T10:39:16.815Z,2.77
2023-11-11T10:41:48.810Z,1.73
2023-11-11T10:44:21.527Z,1.70
2023-11-11T10:46:56.101Z,1.10
2023-11-11T10:49:27.133Z,1.97
2023-11-11T10:52:00.321Z,2.30
2023-11-11T10:54:37.202Z,2.00
2023-11-11T10:57:17.702Z,1.20
2023-11-11T10:59:48.252Z,1.80
2023-11-11T11:02:22.162Z,2.30
2023-11-11T11:04:58.317Z,1.47
2023-11-11T11:07:34.433Z,1.30
2023-11-11T11:10:13.732Z,1.60
2023-11-11T11:12:50.074Z,1.83
2023-11-11T11:15:21.308Z,2.00
2023-11-11T11:18:01.907Z,2.13
2023-11-11T11:20:32.841Z,1.80
2023-11-11T11:23:08.573Z,1.70
2023-11-11T11:25:47.058Z,1.37
2023-11-11T11:28:27.144Z,4.00
2023-11-11T11:31:00.274Z,2.47
2023-11-11T11:33:41.734Z,1.60
2023-11-11T11:36:19.204Z,1.77
2023-11-11T11:38:50.703Z,4.87
2023-11-11T11:41:24.935Z,2.10
2023-11-11T11:43:56.424Z,1.37
2023-11-11T11:46:28.456Z,2.83
2023-11-11T11:49:06.191Z,1.30
2023-11-11T11:51:36.665Z,2.23
2023-11-11T11:54:07.571Z,1.27
2023-11-11T11:56:38.024Z,1.13
2023-11-11T11:59:10.726Z,1.20
2023-11-11T12:01:42.203Z,1.83
2023-11-11T12:04:16.274Z,1.53
2023-11-11T12:06:51.835Z,1.30
2023-11-11T12:09:23.775Z,1.57
2023-11-11T12:11:56.294Z,2.60
2023-11-11T12:14:29.670Z,1.50
2023-11-11T12:17:00.102Z,1.40
2023-11-11T12:19:36.590Z,1.00
2023-11-11T12:22:08.126Z,2.07
2023-11-11T12:24:44.373Z,1.23
2023-11-11T12:27:16.898Z,1.37
2023-11-11T12:29:48.486Z,3.13
2023-11-11T12:32:19.212Z,1.67
2023-11-11T12:34:59.676Z,1.13
2023-11-11T12:37:32.589Z,1.23
2023-11-11T12:40:03.595Z,2.03
2023-11-11T12:42:36.525Z,1.50
2023-11-11T12:45:08.268Z,1.00
2023-11-11T12:47:39.948Z,1.63
2023-11-11T12:50:15.692Z,1.50
2023-11-11T12:53:22.849Z,0.90
2023-11-11T12:56:11.630Z,1.60
2023-11-11T12:58:42.203Z,1.50
2023-11-11T13:01:15.116Z,2.07
2023-11-11T13:03:48.398Z,1.57
2023-11-11T13:06:23.579Z,1.47
2023-11-11T13:09:07.662Z,5.47
2023-11-11T13:11:39.207Z,1.77
2023-11-11T13:14:12.573Z,1.40
2023-11-11T13:16:48.155Z,2.00
2023-11-11T13:19:21.795Z,2.97
2023-11-11T13:21:54.920Z,2.37
2023-11-11T13:24:25.200Z,2.37
2023-11-11T13:26:55.617Z,1.90
2023-11-11T13:29:28.444Z,1.57
2023-11-11T13:32:01.660Z,2.60
2023-11-11T13:34:34.792Z,1.40
2023-11-11T13:37:19.357Z,3.70
2023-11-11T13:40:01.785Z,2.80
2023-11-11T13:42:35.362Z,3.40
2023-11-11T13:45:10.927Z,3.27
2023-11-11T13:47:46.701Z,1.80
2023-11-11T13:50:20.659Z,3.43
2023-11-11T13:52:54.579Z,2.70
2023-11-11T13:55:25.699Z,1.27
2023-11-11T13:58:12.134Z,1.07
2023-11-11T14:00:45.559Z,0.87
2023-11-11T14:03:19.285Z,1.03
2023-11-11T14:05:54.519Z,1.13
2023-11-11T14:08:35.050Z,0.80
2023-11-11T14:11:08.064Z,2.00
2023-11-11T14:13:42.975Z,1.10
2023-11-11T14:16:19.176Z,0.80
2023-11-11T14:18:53.439Z,2.13
2023-11-11T14:21:24.553Z,0.60
2023-11-11T14:23:57.637Z,1.97
2023-11-11T14:26:28.028Z,2.57
2023-11-11T14:29:10.102Z,0.90
2023-11-11T14:31:40.412Z,1.70
2023-11-11T14:34:11.453Z,2.53
2023-11-11T14:36:41.831Z,0.80
2023-11-11T14:39:15.873Z,0.97
2023-11-11T14:41:49.349Z,0.97
2023-11-11T14:44:19.829Z,1.20
2023-11-11T14:46:51.926Z,3.47
2023-11-11T14:49:22.858Z,2.30
2023-11-11T14:52:15.462Z,1.37
2023-11-11T14:54:50.313Z,1.10
2023-11-11T14:57:23.073Z,1.13
2023-11-11T14:59:56.097Z,1.17
2023-11-11T15:02:26.578Z,0.73
2023-11-11T15:05:06.446Z,0.70
2023-11-11T15:07:37.023Z,0.70
2023-11-11T15:10:11.006Z,0.50
2023-11-11T15:12:41.604Z,1.83
2023-11-11T15:15:13.777Z,1.27
2023-11-11T15:17:47.328Z,2.53
2023-11-11T15:20:20.883Z,1.00
2023-11-11T15:22:56.844Z,2.13
2023-11-11T15:25:31.227Z,3.53
2023-11-11T15:28:01.538Z,1.90
2023-11-11T15:30:29.421Z,3.63
2023-11-11T15:33:04.060Z,1.07
2023-11-11T15:35:35.484Z,0.90
2023-11-11T15:38:06.248Z,0.93
2023-11-11T15:40:39.874Z,1.33
2023-11-11T15:43:11.258Z,3.60
2023-11-11T15:45:45.522Z,3.00
2023-11-11T15:48:18.721Z,1.37
2023-11-11T15:50:52.525Z,1.20
2023-11-11T15:53:23.053Z,0.83
2023-11-11T15:55:57.728Z,1.23
2023-11-11T15:58:30.082Z,2.40
2023-11-11T16:01:01.310Z,3.00
2023-11-11T16:03:34.298Z,0.83
2023-11-11T16:06:04.981Z,2.37
2023-11-11T16:08:35.657Z,1.13
2023-11-11T16:11:09.231Z,1.30
2023-11-11T16:13:42.276Z,2.10
2023-11-11T16:16:19.400Z,0.77
2023-11-11T16:18:52.763Z,0.80
2023-11-11T16:21:28.520Z,1.13
2023-11-11T16:24:16.312Z,0.87
2023-11-11T16:26:56.308Z,1.60
2023-11-11T16:29:28.360Z,1.17
2023-11-11T16:32:00.511Z,1.20
2023-11-11T16:34:31.826Z,1.33
2023-11-11T16:37:03.063Z,0.90
2023-11-11T16:39:46.282Z,0.90
2023-11-11T16:42:21.886Z,2.30
2023-11-11T16:44:53.026Z,1.50
2023-11-11T16:47:24.004Z,1.53
2023-11-11T16:49:56.476Z,1.10
2023-11-11T16:52:27.602Z,2.07
2023-11-11T16:54:58.255Z,3.73
2023-11-11T16:57:31.885Z,3.23
2023-11-11T17:00:02.778Z,3.50
2023-11-11T17:02:34.828Z,4.70
2023-11-11T17:05:08.173Z,3.50
2023-11-11T17:07:39.567Z,4.30
2023-11-11T17:10:11.589Z,2.97
2023-11-11T17:12:44.624Z,1.60
2023-11-11T17:15:16.519Z,3.57
2023-11-11T17:17:50.827Z,2.57
2023-11-11T17:20:23.497Z,3.77
2023-11-11T17:22:57.666Z,2.57
2023-11-11T17:25:28.760Z,3.67
2023-11-11T17:28:04.607Z,2.83
2023-11-11T17:30:37.211Z,2.20
2023-11-11T17:33:17.242Z,2.97
2023-11-11T17:35:57.446Z,2.10
2023-11-11T17:38:31.140Z,5.87
2023-11-11T17:41:03.842Z,4.93
2023-11-11T17:43:37.288Z,5.40
2023-11-11T17:46:09.982Z,6.63
2023-11-11T17:48:41.781Z,5.40
2023-11-11T17:51:19.716Z,6.20
2023-11-11T17:53:50.738Z,6.10
2023-11-11T17:56:25.437Z,8.53
2023-11-11T17:59:00.914Z,8.93
2023-11-11T18:01:39.359Z,11.10
2023-11-11T18:04:12.951Z,9.93
2023-11-11T18:06:51.595Z,12.63
2023-11-11T18:09:26.419Z,13.20
2023-11-11T18:12:04.165Z,14.43
2023-11-11T18:14:38.677Z,26.03
2023-11-11T18:17:10.091Z,20.13
2023-11-11T18:19:41.182Z,14.97
2023-11-11T18:22:12.023Z,11.13
2023-11-11T18:24:42.889Z,13.40
2023-11-11T18:27:13.400Z,10.93
2023-11-11T18:29:49.219Z,13.13
2023-11-11T18:32:20.699Z,9.00
2023-11-11T18:34:52.688Z,8.03
2023-11-11T18:37:24.380Z,6.40
2023-11-11T18:40:00.045Z,9.90
2023-11-11T18:42:38.968Z,8.70
2023-11-11T18:45:15.576Z,15.17
2023-11-11T18:47:51.037Z,19.40
2023-11-11T18:50:27.999Z,19.07
2023-11-11T18:53:03.360Z,17.90
2023-11-11T18:55:42.011Z,20.50
2023-11-11T18:58:15.860Z,20.73
2023-11-11T19:00:54.466Z,24.30
2023-11-11T19:03:33.043Z,20.83
2023-11-11T19:06:07.038Z,10.23
2023-11-11T19:08:41.162Z,12.87
2023-11-11T19:11:17.423Z,14.18
2023-11-11T19:13:55.712Z,13.10
2023-11-11T19:16:33.828Z,14.30
2023-11-11T19:19:08.355Z,18.63
2023-11-11T19:21:42.896Z,12.23
2023-11-11T19:24:26.713Z,15.60
2023-11-11T19:27:03.951Z,12.77
2023-11-11T19:29:40.110Z,11.20
2023-11-11T19:32:17.781Z,12.35
2023-11-11T19:34:57.504Z,14.55
2023-11-11T19:37:36.012Z,14.70
2023-11-11T19:40:12.866Z,19.03
2023-11-11T19:42:49.030Z,10.33
2023-11-11T19:45:25.289Z,13.20
2023-11-11T19:48:02.944Z,10.53
2023-11-11T19:50:37.021Z,14.80
2023-11-11T19:53:11.999Z,12.90
2023-11-11T19:55:47.144Z,15.23
2023-11-11T19:58:21.626Z,15.07
2023-11-11T20:00:53.302Z,12.67
2023-11-11T20:03:28.272Z,13.03
2023-11-11T20:06:00.771Z,12.50
2023-11-11T20:08:35.068Z,18.13
2023-11-11T20:11:08.946Z,19.15
2023-11-11T20:13:42.948Z,17.27
2023-11-11T20:16:15.293Z,16.45
2023-11-11T20:18:50.024Z,29.43
2023-11-11T20:21:21.980Z,25.75
2023-11-11T20:23:53.946Z,12.63
2023-11-11T20:26:25.686Z,20.83
2023-11-11T20:28:57.299Z,30.20
2023-11-11T20:31:31.790Z,31.63
2023-11-11T20:34:10.628Z,13.77
2023-11-11T20:36:42.866Z,19.83
2023-11-11T20:39:15.440Z,21.70
2023-11-11T20:41:51.091Z,18.58
2023-11-11T20:44:26.111Z,13.93
2023-11-11T20:47:00.655Z,11.75
2023-11-11T20:49:41.442Z,16.30
2023-11-11T20:52:15.365Z,12.02
2023-11-11T20:54:50.828Z,14.10
2023-11-11T20:57:24.589Z,13.27
2023-11-11T20:59:58.629Z,13.70
2023-11-11T21:02:31.832Z,15.10
2023-11-11T21:05:06.677Z,14.88
2023-11-11T21:07:40.221Z,41.00
2023-11-11T21:10:12.339Z,14.68
2023-11-11T21:12:43.218Z,11.98
2023-11-11T21:15:16.616Z,10.98
2023-11-11T21:17:47.812Z,13.70
2023-11-11T21:20:21.126Z,11.38
2023-11-11T21:22:52.757Z,14.40
2023-11-11T21:25:24.485Z,12.15
2023-11-11T21:27:55.018Z,10.27
2023-11-11T21:30:26.154Z,12.90
2023-11-11T21:32:56.747Z,9.38
2023-11-11T21:35:30.153Z,12.00
2023-11-11T21:38:00.808Z,14.18
2023-11-11T21:40:31.535Z,12.75
2023-11-11T21:43:02.805Z,10.75
2023-11-11T21:45:33.253Z,10.55
2023-11-11T21:48:04.656Z,11.57
2023-11-11T21:50:37.669Z,13.55
2023-11-11T21:53:08.157Z,15.45
2023-11-11T21:55:38.572Z,12.32
2023-11-11T21:58:09.349Z,13.63
2023-11-11T22:00:39.684Z,11.40
2023-11-11T22:03:10.082Z,9.35
2023-11-11T22:05:43.315Z,9.77
2023-11-11T22:08:13.711Z,10.45
2023-11-11T22:10:44.196Z,9.38
2023-11-11T22:13:14.521Z,11.77
2023-11-11T22:15:45.119Z,9.88
2023-11-11T22:18:15.689Z,10.75
2023-11-11T22:20:51.473Z,7.75
2023-11-11T22:23:21.850Z,9.55
2023-11-11T22:25:52.193Z,12.43
2023-11-11T22:28:23.446Z,8.32
2023-11-11T22:30:55.174Z,7.57
2023-11-11T22:33:25.769Z,9.52
2023-11-11T22:35:58.633Z,7.63
2023-11-11T22:38:29.020Z,11.43
2023-11-11T22:40:59.383Z,7.13
2023-11-11T22:43:30.684Z,6.72
2023-11-11T22:46:00.983Z,8.77
2023-11-11T22:48:31.218Z,7.80
2023-11-11T22:51:04.029Z,9.70
2023-11-11T22:53:34.378Z,7.40
2023-11-11T22:56:05.005Z,7.38
2023-11-11T22:58:35.979Z,11.27
2023-11-11T23:01:07.394Z,10.52
2023-11-11T23:03:39.214Z,13.13
2023-11-11T23:06:12.257Z,10.05
2023-11-11T23:08:42.604Z,9.18
2023-11-11T23:11:12.929Z,6.20
2023-11-11T23:13:43.678Z,9.57
2023-11-11T23:16:14.838Z,7.60
2023-11-11T23:18:45.362Z,8.48
2023-11-11T23:21:18.510Z,5.15
2023-11-11T23:23:48.906Z,8.95
2023-11-11T23:26:19.957Z,9.38
2023-11-11T23:28:50.922Z,11.63
2023-11-11T23:31:21.735Z,8.57
2023-11-11T23:33:52.087Z,9.48
2023-11-11T23:36:26.066Z,5.85
2023-11-11T23:38:56.384Z,6.97
2023-11-11T23:41:28.640Z,5.90
2023-11-11T23:43:59.048Z,5.05
2023-11-11T23:46:29.355Z,3.25
2023-11-11T23:48:59.709Z,5.90
2023-11-11T23:51:32.643Z,7.20
2023-11-11T23:54:04.638Z,4.13
2023-11-11T23:56:34.921Z,6.35
2023-11-11T23:59:05.223Z,5.25
